sensor_id;sensor_type;location;lat;lon;timestamp;P1;durP1;ratioP1;P2;durP2;ratioP2
59434;SDS011;45241;49.768;8.636;2023-06-24T00:01:20;5.57;;;3.50;;
59434;SDS011;45241;49.768;8.636;2023-06-24T00:03:47;4.68;;;3.85;;
59434;SDS011;45241;49.768;8.636;2023-06-24T00:06:13;6.35;;;3.42;;
59434;SDS011;45241;49.768;8.636;2023-06-24T00:08:43;5.13;;;3.50;;
59434;SDS011;45241;49.768;8.636;2023-06-24T00:11:10;3.78;;;3.35;;
59434;SDS011;45241;49.768;8.636;2023-06-24T00:13:35;3.58;;;3.20;;
59434;SDS011;45241;49.768;8.636;2023-06-24T00:16:01;7.40;;;3.70;;
59434;SDS011;45241;49.768;8.636;2023-06-24T00:18:26;3.97;;;3.55;;
59434;SDS011;45241;49.768;8.636;2023-06-24T00:20:54;3.80;;;3.40;;
59434;SDS011;45241;49.768;8.636;2023-06-24T00:23:21;4.90;;;3.40;;
59434;SDS011;45241;49.768;8.636;2023-06-24T00:25:53;4.97;;;3.33;;
59434;SDS011;45241;49.768;8.636;2023-06-24T00:28:20;3.88;;;3.45;;
59434;SDS011;45241;49.768;8.636;2023-06-24T00:30:49;4.65;;;3.38;;
59434;SDS011;45241;49.768;8.636;2023-06-24T00:33:15;4.22;;;3.33;;
59434;SDS011;45241;49.768;8.636;2023-06-24T00:35:41;5.80;;;3.85;;
59434;SDS011;45241;49.768;8.636;2023-06-24T00:38:08;5.78;;;3.30;;
59434;SDS011;45241;49.768;8.636;2023-06-24T00:40:33;4.82;;;3.33;;
59434;SDS011;45241;49.768;8.636;2023-06-24T00:42:58;5.45;;;3.72;;
59434;SDS011;45241;49.768;8.636;2023-06-24T00:45:26;4.00;;;3.42;;
59434;SDS011;45241;49.768;8.636;2023-06-24T00:47:52;6.32;;;3.80;;
59434;SDS011;45241;49.768;8.636;2023-06-24T00:50:19;4.88;;;3.75;;
59434;SDS011;45241;49.768;8.636;2023-06-24T00:52:45;4.32;;;3.83;;
59434;SDS011;45241;49.768;8.636;2023-06-24T00:55:11;6.35;;;4.00;;
59434;SDS011;45241;49.768;8.636;2023-06-24T00:57:39;3.80;;;3.50;;
59434;SDS011;45241;49.768;8.636;2023-06-24T01:00:06;4.57;;;4.10;;
59434;SDS011;45241;49.768;8.636;2023-06-24T01:02:39;5.07;;;4.10;;
59434;SDS011;45241;49.768;8.636;2023-06-24T01:05:07;6.50;;;4.10;;
59434;SDS011;45241;49.768;8.636;2023-06-24T01:07:33;6.80;;;4.20;;
59434;SDS011;45241;49.768;8.636;2023-06-24T01:10:01;5.30;;;4.40;;
59434;SDS011;45241;49.768;8.636;2023-06-24T01:12:27;5.43;;;4.63;;
59434;SDS011;45241;49.768;8.636;2023-06-24T01:14:52;5.47;;;4.50;;
59434;SDS011;45241;49.768;8.636;2023-06-24T01:17:19;4.80;;;3.78;;
59434;SDS011;45241;49.768;8.636;2023-06-24T01:20:04;4.40;;;3.95;;
59434;SDS011;45241;49.768;8.636;2023-06-24T01:22:48;4.80;;;3.83;;
59434;SDS011;45241;49.768;8.636;2023-06-24T01:30:51;4.85;;;4.30;;
59434;SDS011;45241;49.768;8.636;2023-06-24T01:36:33;5.28;;;4.45;;
59434;SDS011;45241;49.768;8.636;2023-06-24T01:39:02;5.20;;;4.03;;
59434;SDS011;45241;49.768;8.636;2023-06-24T01:41:38;4.85;;;4.18;;
59434;SDS011;45241;49.768;8.636;2023-06-24T01:44:07;4.90;;;4.20;;
59434;SDS011;45241;49.768;8.636;2023-06-24T01:46:35;6.10;;;4.03;;
59434;SDS011;45241;49.768;8.636;2023-06-24T01:49:02;4.50;;;3.95;;
59434;SDS011;45241;49.768;8.636;2023-06-24T01:51:32;4.55;;;4.07;;
59434;SDS011;45241;49.768;8.636;2023-06-24T01:54:02;4.82;;;4.00;;
59434;SDS011;45241;49.768;8.636;2023-06-24T01:56:29;5.60;;;4.35;;
59434;SDS011;45241;49.768;8.636;2023-06-24T01:58:57;4.45;;;3.80;;
59434;SDS011;45241;49.768;8.636;2023-06-24T02:01:25;5.90;;;4.05;;
59434;SDS011;45241;49.768;8.636;2023-06-24T02:03:52;5.90;;;4.05;;
59434;SDS011;45241;49.768;8.636;2023-06-24T02:06:20;6.15;;;4.40;;
59434;SDS011;45241;49.768;8.636;2023-06-24T02:08:47;4.35;;;3.95;;
59434;SDS011;45241;49.768;8.636;2023-06-24T02:11:15;4.85;;;4.30;;
59434;SDS011;45241;49.768;8.636;2023-06-24T02:13:42;4.40;;;4.00;;
59434;SDS011;45241;49.768;8.636;2023-06-24T02:16:08;5.35;;;3.92;;
59434;SDS011;45241;49.768;8.636;2023-06-24T02:18:36;6.55;;;4.10;;
59434;SDS011;45241;49.768;8.636;2023-06-24T02:21:07;5.13;;;4.30;;
59434;SDS011;45241;49.768;8.636;2023-06-24T02:23:33;4.07;;;3.67;;
59434;SDS011;45241;49.768;8.636;2023-06-24T02:26:00;4.95;;;4.18;;
59434;SDS011;45241;49.768;8.636;2023-06-24T02:28:27;4.43;;;3.95;;
59434;SDS011;45241;49.768;8.636;2023-06-24T02:30:54;4.80;;;4.32;;
59434;SDS011;45241;49.768;8.636;2023-06-24T02:33:20;4.78;;;4.20;;
59434;SDS011;45241;49.768;8.636;2023-06-24T02:35:45;5.63;;;4.28;;
59434;SDS011;45241;49.768;8.636;2023-06-24T02:38:11;4.50;;;4.05;;
59434;SDS011;45241;49.768;8.636;2023-06-24T02:40:37;4.32;;;3.92;;
59434;SDS011;45241;49.768;8.636;2023-06-24T02:43:02;6.97;;;4.30;;
59434;SDS011;45241;49.768;8.636;2023-06-24T02:45:28;4.20;;;3.80;;
59434;SDS011;45241;49.768;8.636;2023-06-24T02:47:53;4.32;;;3.88;;
59434;SDS011;45241;49.768;8.636;2023-06-24T02:50:21;4.20;;;3.72;;
59434;SDS011;45241;49.768;8.636;2023-06-24T02:52:47;7.72;;;4.35;;
59434;SDS011;45241;49.768;8.636;2023-06-24T02:55:13;6.10;;;4.28;;
59434;SDS011;45241;49.768;8.636;2023-06-24T02:57:40;6.05;;;4.18;;
59434;SDS011;45241;49.768;8.636;2023-06-24T03:00:05;4.88;;;4.22;;
59434;SDS011;45241;49.768;8.636;2023-06-24T03:02:40;4.38;;;3.97;;
59434;SDS011;45241;49.768;8.636;2023-06-24T03:05:07;4.70;;;4.20;;
59434;SDS011;45241;49.768;8.636;2023-06-24T03:07:34;4.43;;;4.03;;
59434;SDS011;45241;49.768;8.636;2023-06-24T03:10:02;5.70;;;4.05;;
59434;SDS011;45241;49.768;8.636;2023-06-24T03:12:28;6.38;;;4.10;;
59434;SDS011;45241;49.768;8.636;2023-06-24T03:14:53;8.50;;;4.10;;
59434;SDS011;45241;49.768;8.636;2023-06-24T03:17:19;6.63;;;4.65;;
59434;SDS011;45241;49.768;8.636;2023-06-24T03:19:44;6.00;;;4.18;;
59434;SDS011;45241;49.768;8.636;2023-06-24T03:22:10;6.30;;;4.40;;
59434;SDS011;45241;49.768;8.636;2023-06-24T03:24:35;4.57;;;4.18;;
59434;SDS011;45241;49.768;8.636;2023-06-24T03:27:00;5.07;;;4.30;;
59434;SDS011;45241;49.768;8.636;2023-06-24T03:29:25;4.93;;;4.15;;
59434;SDS011;45241;49.768;8.636;2023-06-24T03:31:51;6.30;;;4.00;;
59434;SDS011;45241;49.768;8.636;2023-06-24T03:34:16;7.45;;;4.43;;
59434;SDS011;45241;49.768;8.636;2023-06-24T03:36:42;5.47;;;4.10;;
59434;SDS011;45241;49.768;8.636;2023-06-24T03:39:07;6.55;;;4.32;;
59434;SDS011;45241;49.768;8.636;2023-06-24T03:41:33;8.00;;;4.57;;
59434;SDS011;45241;49.768;8.636;2023-06-24T03:43:58;6.30;;;4.18;;
59434;SDS011;45241;49.768;8.636;2023-06-24T03:46:24;6.63;;;4.07;;
59434;SDS011;45241;49.768;8.636;2023-06-24T03:48:50;5.75;;;4.70;;
59434;SDS011;45241;49.768;8.636;2023-06-24T03:51:16;5.43;;;4.65;;
59434;SDS011;45241;49.768;8.636;2023-06-24T03:53:41;4.93;;;4.15;;
59434;SDS011;45241;49.768;8.636;2023-06-24T03:56:06;6.93;;;4.32;;
59434;SDS011;45241;49.768;8.636;2023-06-24T03:58:32;5.53;;;4.32;;
59434;SDS011;45241;49.768;8.636;2023-06-24T04:00:58;5.75;;;4.50;;
59434;SDS011;45241;49.768;8.636;2023-06-24T04:03:24;5.55;;;4.15;;
59434;SDS011;45241;49.768;8.636;2023-06-24T04:05:54;5.22;;;4.18;;
59434;SDS011;45241;49.768;8.636;2023-06-24T04:08:20;5.38;;;4.10;;
59434;SDS011;45241;49.768;8.636;2023-06-24T04:10:45;4.80;;;4.30;;
59434;SDS011;45241;49.768;8.636;2023-06-24T04:13:10;5.78;;;4.38;;
59434;SDS011;45241;49.768;8.636;2023-06-24T04:15:35;5.63;;;4.07;;
59434;SDS011;45241;49.768;8.636;2023-06-24T04:18:01;6.65;;;4.30;;
59434;SDS011;45241;49.768;8.636;2023-06-24T04:20:27;4.72;;;4.05;;
59434;SDS011;45241;49.768;8.636;2023-06-24T04:22:52;5.88;;;4.57;;
59434;SDS011;45241;49.768;8.636;2023-06-24T04:25:18;7.25;;;4.30;;
59434;SDS011;45241;49.768;8.636;2023-06-24T04:27:43;6.45;;;4.22;;
59434;SDS011;45241;49.768;8.636;2023-06-24T04:30:08;6.97;;;4.25;;
59434;SDS011;45241;49.768;8.636;2023-06-24T04:32:34;6.43;;;4.35;;
59434;SDS011;45241;49.768;8.636;2023-06-24T04:34:59;7.57;;;4.40;;
59434;SDS011;45241;49.768;8.636;2023-06-24T04:37:25;6.15;;;4.53;;
59434;SDS011;45241;49.768;8.636;2023-06-24T04:39:51;4.85;;;4.03;;
59434;SDS011;45241;49.768;8.636;2023-06-24T04:42:16;6.20;;;4.95;;
59434;SDS011;45241;49.768;8.636;2023-06-24T04:44:42;4.93;;;4.00;;
59434;SDS011;45241;49.768;8.636;2023-06-24T04:47:07;6.25;;;4.22;;
59434;SDS011;45241;49.768;8.636;2023-06-24T04:49:33;6.38;;;4.30;;
59434;SDS011;45241;49.768;8.636;2023-06-24T04:52:01;5.40;;;4.40;;
59434;SDS011;45241;49.768;8.636;2023-06-24T04:54:27;7.90;;;4.20;;
59434;SDS011;45241;49.768;8.636;2023-06-24T04:56:52;5.20;;;4.25;;
59434;SDS011;45241;49.768;8.636;2023-06-24T04:59:20;4.88;;;4.20;;
59434;SDS011;45241;49.768;8.636;2023-06-24T05:01:46;4.90;;;4.10;;
59434;SDS011;45241;49.768;8.636;2023-06-24T05:04:11;4.75;;;3.95;;
59434;SDS011;45241;49.768;8.636;2023-06-24T05:06:36;6.45;;;4.40;;
59434;SDS011;45241;49.768;8.636;2023-06-24T05:09:02;5.03;;;4.20;;
59434;SDS011;45241;49.768;8.636;2023-06-24T05:11:27;4.78;;;4.07;;
59434;SDS011;45241;49.768;8.636;2023-06-24T05:13:52;7.03;;;4.35;;
59434;SDS011;45241;49.768;8.636;2023-06-24T05:16:18;5.38;;;4.32;;
59434;SDS011;45241;49.768;8.636;2023-06-24T05:18:44;6.22;;;4.50;;
59434;SDS011;45241;49.768;8.636;2023-06-24T05:21:10;5.88;;;4.15;;
59434;SDS011;45241;49.768;8.636;2023-06-24T05:23:35;6.18;;;4.43;;
59434;SDS011;45241;49.768;8.636;2023-06-24T05:26:01;6.60;;;4.25;;
59434;SDS011;45241;49.768;8.636;2023-06-24T05:28:26;4.97;;;4.35;;
59434;SDS011;45241;49.768;8.636;2023-06-24T05:30:51;5.97;;;4.30;;
59434;SDS011;45241;49.768;8.636;2023-06-24T05:33:16;5.22;;;4.25;;
59434;SDS011;45241;49.768;8.636;2023-06-24T05:35:45;7.20;;;4.50;;
59434;SDS011;45241;49.768;8.636;2023-06-24T05:38:10;4.85;;;3.97;;
59434;SDS011;45241;49.768;8.636;2023-06-24T05:40:35;4.80;;;4.18;;
59434;SDS011;45241;49.768;8.636;2023-06-24T05:43:01;5.65;;;4.15;;
59434;SDS011;45241;49.768;8.636;2023-06-24T05:45:26;10.40;;;4.45;;
59434;SDS011;45241;49.768;8.636;2023-06-24T05:47:52;6.55;;;4.40;;
59434;SDS011;45241;49.768;8.636;2023-06-24T05:50:17;5.35;;;4.07;;
59434;SDS011;45241;49.768;8.636;2023-06-24T05:52:42;23.45;;;4.70;;
59434;SDS011;45241;49.768;8.636;2023-06-24T05:55:08;5.43;;;4.50;;
59434;SDS011;45241;49.768;8.636;2023-06-24T05:57:34;6.25;;;4.28;;
59434;SDS011;45241;49.768;8.636;2023-06-24T05:59:59;6.10;;;4.22;;
59434;SDS011;45241;49.768;8.636;2023-06-24T06:02:24;6.03;;;4.15;;
59434;SDS011;45241;49.768;8.636;2023-06-24T06:04:50;6.60;;;4.75;;
59434;SDS011;45241;49.768;8.636;2023-06-24T06:07:15;7.18;;;4.80;;
59434;SDS011;45241;49.768;8.636;2023-06-24T06:09:41;4.75;;;4.20;;
59434;SDS011;45241;49.768;8.636;2023-06-24T06:12:06;5.57;;;4.05;;
59434;SDS011;45241;49.768;8.636;2023-06-24T06:14:32;6.97;;;4.25;;
59434;SDS011;45241;49.768;8.636;2023-06-24T06:16:57;6.25;;;4.30;;
59434;SDS011;45241;49.768;8.636;2023-06-24T06:19:22;5.13;;;3.75;;
59434;SDS011;45241;49.768;8.636;2023-06-24T06:21:48;5.75;;;4.05;;
59434;SDS011;45241;49.768;8.636;2023-06-24T06:24:14;6.22;;;4.95;;
59434;SDS011;45241;49.768;8.636;2023-06-24T06:26:43;6.18;;;4.43;;
59434;SDS011;45241;49.768;8.636;2023-06-24T06:29:09;7.70;;;4.70;;
59434;SDS011;45241;49.768;8.636;2023-06-24T06:31:37;5.90;;;4.47;;
59434;SDS011;45241;49.768;8.636;2023-06-24T06:34:03;7.45;;;4.55;;
59434;SDS011;45241;49.768;8.636;2023-06-24T06:36:28;7.20;;;4.55;;
59434;SDS011;45241;49.768;8.636;2023-06-24T06:38:53;6.85;;;4.15;;
59434;SDS011;45241;49.768;8.636;2023-06-24T06:41:19;7.47;;;4.85;;
59434;SDS011;45241;49.768;8.636;2023-06-24T06:43:52;5.43;;;4.57;;
59434;SDS011;45241;49.768;8.636;2023-06-24T06:46:18;5.80;;;4.88;;
59434;SDS011;45241;49.768;8.636;2023-06-24T06:48:44;6.20;;;4.90;;
59434;SDS011;45241;49.768;8.636;2023-06-24T06:51:09;8.77;;;4.90;;
59434;SDS011;45241;49.768;8.636;2023-06-24T06:53:35;7.28;;;5.50;;
59434;SDS011;45241;49.768;8.636;2023-06-24T06:56:00;7.18;;;5.00;;
59434;SDS011;45241;49.768;8.636;2023-06-24T06:58:25;5.65;;;4.65;;
59434;SDS011;45241;49.768;8.636;2023-06-24T07:00:51;6.38;;;4.72;;
59434;SDS011;45241;49.768;8.636;2023-06-24T07:03:16;4.97;;;4.00;;
59434;SDS011;45241;49.768;8.636;2023-06-24T07:05:41;8.05;;;4.30;;
59434;SDS011;45241;49.768;8.636;2023-06-24T07:08:07;7.30;;;4.40;;
59434;SDS011;45241;49.768;8.636;2023-06-24T07:10:32;9.05;;;4.20;;
59434;SDS011;45241;49.768;8.636;2023-06-24T07:12:58;6.93;;;4.68;;
59434;SDS011;45241;49.768;8.636;2023-06-24T07:15:24;6.32;;;4.70;;
59434;SDS011;45241;49.768;8.636;2023-06-24T07:17:50;6.47;;;4.78;;
59434;SDS011;45241;49.768;8.636;2023-06-24T07:20:15;5.72;;;4.38;;
59434;SDS011;45241;49.768;8.636;2023-06-24T07:22:41;5.93;;;3.78;;
59434;SDS011;45241;49.768;8.636;2023-06-24T07:25:06;7.40;;;4.13;;
59434;SDS011;45241;49.768;8.636;2023-06-24T07:27:32;4.63;;;4.00;;
59434;SDS011;45241;49.768;8.636;2023-06-24T07:29:57;5.60;;;4.40;;
59434;SDS011;45241;49.768;8.636;2023-06-24T07:32:22;4.70;;;3.92;;
59434;SDS011;45241;49.768;8.636;2023-06-24T07:34:47;4.88;;;3.85;;
59434;SDS011;45241;49.768;8.636;2023-06-24T07:37:13;5.70;;;4.10;;
59434;SDS011;45241;49.768;8.636;2023-06-24T07:39:38;6.95;;;4.55;;
59434;SDS011;45241;49.768;8.636;2023-06-24T07:42:03;7.28;;;4.20;;
59434;SDS011;45241;49.768;8.636;2023-06-24T07:44:29;6.30;;;4.20;;
59434;SDS011;45241;49.768;8.636;2023-06-24T07:46:54;5.63;;;3.78;;
59434;SDS011;45241;49.768;8.636;2023-06-24T07:49:19;6.45;;;4.22;;
59434;SDS011;45241;49.768;8.636;2023-06-24T07:51:45;7.85;;;4.18;;
59434;SDS011;45241;49.768;8.636;2023-06-24T07:54:10;8.20;;;4.50;;
59434;SDS011;45241;49.768;8.636;2023-06-24T07:56:36;6.40;;;4.32;;
59434;SDS011;45241;49.768;8.636;2023-06-24T07:59:01;6.55;;;3.95;;
59434;SDS011;45241;49.768;8.636;2023-06-24T08:01:27;8.90;;;4.80;;
59434;SDS011;45241;49.768;8.636;2023-06-24T08:03:52;5.55;;;4.07;;
59434;SDS011;45241;49.768;8.636;2023-06-24T08:06:18;7.57;;;4.18;;
59434;SDS011;45241;49.768;8.636;2023-06-24T08:08:43;5.88;;;4.07;;
59434;SDS011;45241;49.768;8.636;2023-06-24T08:11:11;5.55;;;3.90;;
59434;SDS011;45241;49.768;8.636;2023-06-24T08:13:36;12.02;;;4.50;;
59434;SDS011;45241;49.768;8.636;2023-06-24T08:16:01;6.30;;;4.53;;
59434;SDS011;45241;49.768;8.636;2023-06-24T08:18:27;6.90;;;4.10;;
59434;SDS011;45241;49.768;8.636;2023-06-24T08:20:52;5.30;;;4.20;;
59434;SDS011;45241;49.768;8.636;2023-06-24T08:23:18;9.45;;;4.78;;
59434;SDS011;45241;49.768;8.636;2023-06-24T08:25:43;5.82;;;4.03;;
59434;SDS011;45241;49.768;8.636;2023-06-24T08:28:08;5.75;;;4.20;;
59434;SDS011;45241;49.768;8.636;2023-06-24T08:30:35;5.60;;;4.22;;
59434;SDS011;45241;49.768;8.636;2023-06-24T08:33:00;6.13;;;3.58;;
59434;SDS011;45241;49.768;8.636;2023-06-24T08:35:25;6.40;;;3.97;;
59434;SDS011;45241;49.768;8.636;2023-06-24T08:37:51;6.45;;;4.00;;
59434;SDS011;45241;49.768;8.636;2023-06-24T08:40:16;5.32;;;3.90;;
59434;SDS011;45241;49.768;8.636;2023-06-24T08:42:42;6.05;;;3.92;;
59434;SDS011;45241;49.768;8.636;2023-06-24T08:45:08;7.88;;;3.83;;
59434;SDS011;45241;49.768;8.636;2023-06-24T08:47:34;5.00;;;3.95;;
59434;SDS011;45241;49.768;8.636;2023-06-24T08:50:12;5.53;;;4.45;;
59434;SDS011;45241;49.768;8.636;2023-06-24T08:52:45;6.03;;;4.15;;
59434;SDS011;45241;49.768;8.636;2023-06-24T08:55:16;5.68;;;4.50;;
59434;SDS011;45241;49.768;8.636;2023-06-24T08:57:45;5.57;;;3.90;;
59434;SDS011;45241;49.768;8.636;2023-06-24T09:00:11;7.03;;;4.22;;
59434;SDS011;45241;49.768;8.636;2023-06-24T09:02:37;6.75;;;4.07;;
59434;SDS011;45241;49.768;8.636;2023-06-24T09:05:06;8.00;;;4.03;;
59434;SDS011;45241;49.768;8.636;2023-06-24T09:07:32;7.75;;;3.95;;
59434;SDS011;45241;49.768;8.636;2023-06-24T09:09:58;7.40;;;3.50;;
59434;SDS011;45241;49.768;8.636;2023-06-24T09:12:25;5.72;;;3.63;;
59434;SDS011;45241;49.768;8.636;2023-06-24T09:14:51;5.57;;;4.03;;
59434;SDS011;45241;49.768;8.636;2023-06-24T09:17:17;6.75;;;3.80;;
59434;SDS011;45241;49.768;8.636;2023-06-24T09:19:43;4.22;;;3.40;;
59434;SDS011;45241;49.768;8.636;2023-06-24T09:22:09;7.90;;;4.30;;
59434;SDS011;45241;49.768;8.636;2023-06-24T09:24:45;5.78;;;4.10;;
59434;SDS011;45241;49.768;8.636;2023-06-24T09:27:12;5.45;;;4.20;;
59434;SDS011;45241;49.768;8.636;2023-06-24T09:29:42;5.55;;;4.00;;
59434;SDS011;45241;49.768;8.636;2023-06-24T09:32:08;5.80;;;3.72;;
59434;SDS011;45241;49.768;8.636;2023-06-24T09:34:34;4.57;;;3.60;;
59434;SDS011;45241;49.768;8.636;2023-06-24T09:37:00;5.45;;;3.65;;
59434;SDS011;45241;49.768;8.636;2023-06-24T09:39:26;6.30;;;3.55;;
59434;SDS011;45241;49.768;8.636;2023-06-24T09:41:59;7.45;;;4.20;;
59434;SDS011;45241;49.768;8.636;2023-06-24T09:44:25;4.65;;;3.60;;
59434;SDS011;45241;49.768;8.636;2023-06-24T09:46:55;4.70;;;3.50;;
59434;SDS011;45241;49.768;8.636;2023-06-24T09:49:21;5.32;;;3.80;;
59434;SDS011;45241;49.768;8.636;2023-06-24T09:51:47;5.78;;;3.92;;
59434;SDS011;45241;49.768;8.636;2023-06-24T09:54:15;4.40;;;3.88;;
59434;SDS011;45241;49.768;8.636;2023-06-24T09:56:50;4.93;;;3.97;;
59434;SDS011;45241;49.768;8.636;2023-06-24T09:59:18;6.53;;;4.55;;
59434;SDS011;45241;49.768;8.636;2023-06-24T10:01:48;5.40;;;3.97;;
59434;SDS011;45241;49.768;8.636;2023-06-24T10:04:16;4.13;;;3.65;;
59434;SDS011;45241;49.768;8.636;2023-06-24T10:06:43;3.72;;;3.22;;
59434;SDS011;45241;49.768;8.636;2023-06-24T10:09:08;5.32;;;4.13;;
59434;SDS011;45241;49.768;8.636;2023-06-24T10:11:34;5.18;;;4.05;;
59434;SDS011;45241;49.768;8.636;2023-06-24T10:14:00;5.70;;;3.88;;
59434;SDS011;45241;49.768;8.636;2023-06-24T10:16:26;4.00;;;3.40;;
59434;SDS011;45241;49.768;8.636;2023-06-24T10:18:52;5.07;;;3.20;;
59434;SDS011;45241;49.768;8.636;2023-06-24T10:21:24;4.50;;;3.45;;
59434;SDS011;45241;49.768;8.636;2023-06-24T10:24:10;5.85;;;3.53;;
59434;SDS011;45241;49.768;8.636;2023-06-24T10:26:35;4.88;;;3.80;;
59434;SDS011;45241;49.768;8.636;2023-06-24T10:36:52;4.68;;;3.80;;
59434;SDS011;45241;49.768;8.636;2023-06-24T10:44:48;4.43;;;3.38;;
59434;SDS011;45241;49.768;8.636;2023-06-24T10:47:14;4.45;;;3.78;;
59434;SDS011;45241;49.768;8.636;2023-06-24T10:49:39;5.10;;;3.70;;
59434;SDS011;45241;49.768;8.636;2023-06-24T10:52:11;3.70;;;3.15;;
59434;SDS011;45241;49.768;8.636;2023-06-24T10:54:37;3.47;;;3.17;;
59434;SDS011;45241;49.768;8.636;2023-06-24T10:57:04;4.65;;;3.25;;
59434;SDS011;45241;49.768;8.636;2023-06-24T10:59:39;6.25;;;3.65;;
59434;SDS011;45241;49.768;8.636;2023-06-24T11:02:04;4.03;;;3.40;;
59434;SDS011;45241;49.768;8.636;2023-06-24T11:04:30;5.78;;;4.05;;
59434;SDS011;45241;49.768;8.636;2023-06-24T11:07:02;5.55;;;3.70;;
59434;SDS011;45241;49.768;8.636;2023-06-24T11:09:27;4.53;;;3.65;;
59434;SDS011;45241;49.768;8.636;2023-06-24T11:11:53;5.30;;;3.90;;
59434;SDS011;45241;49.768;8.636;2023-06-24T11:14:19;5.05;;;3.40;;
59434;SDS011;45241;49.768;8.636;2023-06-24T11:16:45;3.42;;;3.05;;
59434;SDS011;45241;49.768;8.636;2023-06-24T11:19:10;4.38;;;3.28;;
59434;SDS011;45241;49.768;8.636;2023-06-24T11:21:36;4.65;;;3.20;;
59434;SDS011;45241;49.768;8.636;2023-06-24T11:24:04;6.07;;;4.00;;
59434;SDS011;45241;49.768;8.636;2023-06-24T11:26:30;4.57;;;3.72;;
59434;SDS011;45241;49.768;8.636;2023-06-24T11:28:57;3.88;;;3.33;;
59434;SDS011;45241;49.768;8.636;2023-06-24T11:31:24;5.43;;;3.60;;
59434;SDS011;45241;49.768;8.636;2023-06-24T11:33:50;4.63;;;3.30;;
59434;SDS011;45241;49.768;8.636;2023-06-24T11:36:17;3.70;;;3.40;;
59434;SDS011;45241;49.768;8.636;2023-06-24T11:38:45;4.05;;;3.28;;
59434;SDS011;45241;49.768;8.636;2023-06-24T11:41:11;4.95;;;3.65;;
59434;SDS011;45241;49.768;8.636;2023-06-24T11:43:36;3.88;;;3.47;;
59434;SDS011;45241;49.768;8.636;2023-06-24T11:46:01;5.22;;;3.60;;
59434;SDS011;45241;49.768;8.636;2023-06-24T11:48:27;3.83;;;3.30;;
59434;SDS011;45241;49.768;8.636;2023-06-24T11:50:54;5.50;;;3.55;;
59434;SDS011;45241;49.768;8.636;2023-06-24T11:56:11;5.05;;;3.03;;
59434;SDS011;45241;49.768;8.636;2023-06-24T11:58:37;4.07;;;3.10;;
59434;SDS011;45241;49.768;8.636;2023-06-24T12:01:03;3.78;;;2.97;;
59434;SDS011;45241;49.768;8.636;2023-06-24T12:03:32;6.05;;;3.60;;
59434;SDS011;45241;49.768;8.636;2023-06-24T12:05:58;3.38;;;2.88;;
59434;SDS011;45241;49.768;8.636;2023-06-24T12:08:24;5.93;;;3.28;;
59434;SDS011;45241;49.768;8.636;2023-06-24T12:10:49;3.78;;;3.38;;
59434;SDS011;45241;49.768;8.636;2023-06-24T12:13:14;3.72;;;2.97;;
59434;SDS011;45241;49.768;8.636;2023-06-24T12:15:40;4.15;;;3.05;;
59434;SDS011;45241;49.768;8.636;2023-06-24T12:18:05;5.38;;;3.10;;
59434;SDS011;45241;49.768;8.636;2023-06-24T12:20:31;4.53;;;3.08;;
59434;SDS011;45241;49.768;8.636;2023-06-24T12:22:57;3.95;;;3.55;;
59434;SDS011;45241;49.768;8.636;2023-06-24T12:25:23;3.33;;;3.03;;
59434;SDS011;45241;49.768;8.636;2023-06-24T12:27:49;4.38;;;3.30;;
59434;SDS011;45241;49.768;8.636;2023-06-24T12:30:15;4.20;;;3.40;;
59434;SDS011;45241;49.768;8.636;2023-06-24T12:32:41;5.75;;;3.20;;
59434;SDS011;45241;49.768;8.636;2023-06-24T12:35:08;4.43;;;3.47;;
59434;SDS011;45241;49.768;8.636;2023-06-24T12:37:36;4.38;;;3.63;;
59434;SDS011;45241;49.768;8.636;2023-06-24T12:40:05;4.68;;;3.40;;
59434;SDS011;45241;49.768;8.636;2023-06-24T12:42:31;4.00;;;3.17;;
59434;SDS011;45241;49.768;8.636;2023-06-24T12:44:56;4.35;;;3.50;;
59434;SDS011;45241;49.768;8.636;2023-06-24T12:47:22;6.40;;;3.60;;
59434;SDS011;45241;49.768;8.636;2023-06-24T12:49:48;4.25;;;3.60;;
59434;SDS011;45241;49.768;8.636;2023-06-24T12:52:14;3.97;;;3.30;;
59434;SDS011;45241;49.768;8.636;2023-06-24T12:54:39;5.97;;;3.72;;
59434;SDS011;45241;49.768;8.636;2023-06-24T12:57:05;4.90;;;3.13;;
59434;SDS011;45241;49.768;8.636;2023-06-24T12:59:30;3.50;;;2.97;;
59434;SDS011;45241;49.768;8.636;2023-06-24T13:01:56;4.60;;;3.67;;
59434;SDS011;45241;49.768;8.636;2023-06-24T13:04:21;3.40;;;3.10;;
59434;SDS011;45241;49.768;8.636;2023-06-24T13:06:48;3.97;;;3.38;;
59434;SDS011;45241;49.768;8.636;2023-06-24T13:09:14;3.95;;;3.25;;
59434;SDS011;45241;49.768;8.636;2023-06-24T13:11:40;4.00;;;3.20;;
59434;SDS011;45241;49.768;8.636;2023-06-24T13:14:05;5.18;;;3.50;;
59434;SDS011;45241;49.768;8.636;2023-06-24T13:16:31;4.57;;;3.50;;
59434;SDS011;45241;49.768;8.636;2023-06-24T13:18:56;3.85;;;3.33;;
59434;SDS011;45241;49.768;8.636;2023-06-24T13:21:21;3.90;;;3.22;;
59434;SDS011;45241;49.768;8.636;2023-06-24T13:23:48;4.20;;;3.20;;
59434;SDS011;45241;49.768;8.636;2023-06-24T13:26:13;4.95;;;3.63;;
59434;SDS011;45241;49.768;8.636;2023-06-24T13:28:39;5.97;;;3.08;;
59434;SDS011;45241;49.768;8.636;2023-06-24T13:31:04;4.43;;;3.70;;
59434;SDS011;45241;49.768;8.636;2023-06-24T13:33:30;3.50;;;3.15;;
59434;SDS011;45241;49.768;8.636;2023-06-24T13:35:55;4.20;;;3.10;;
59434;SDS011;45241;49.768;8.636;2023-06-24T13:38:21;3.70;;;3.00;;
59434;SDS011;45241;49.768;8.636;2023-06-24T13:40:47;3.70;;;3.22;;
59434;SDS011;45241;49.768;8.636;2023-06-24T13:43:12;3.38;;;3.08;;
59434;SDS011;45241;49.768;8.636;2023-06-24T13:45:37;4.15;;;3.40;;
59434;SDS011;45241;49.768;8.636;2023-06-24T13:48:03;3.67;;;3.28;;
59434;SDS011;45241;49.768;8.636;2023-06-24T13:50:28;4.35;;;3.35;;
59434;SDS011;45241;49.768;8.636;2023-06-24T13:52:54;5.30;;;3.60;;
59434;SDS011;45241;49.768;8.636;2023-06-24T13:55:20;3.60;;;3.30;;
59434;SDS011;45241;49.768;8.636;2023-06-24T13:57:45;3.30;;;3.00;;
59434;SDS011;45241;49.768;8.636;2023-06-24T14:00:10;4.28;;;3.30;;
59434;SDS011;45241;49.768;8.636;2023-06-24T14:02:36;3.80;;;3.50;;
59434;SDS011;45241;49.768;8.636;2023-06-24T14:05:02;3.50;;;3.03;;
59434;SDS011;45241;49.768;8.636;2023-06-24T14:07:27;3.58;;;3.28;;
59434;SDS011;45241;49.768;8.636;2023-06-24T14:09:54;4.55;;;3.08;;
59434;SDS011;45241;49.768;8.636;2023-06-24T14:12:19;3.42;;;3.00;;
59434;SDS011;45241;49.768;8.636;2023-06-24T14:14:45;3.50;;;2.90;;
59434;SDS011;45241;49.768;8.636;2023-06-24T14:17:10;4.32;;;2.97;;
59434;SDS011;45241;49.768;8.636;2023-06-24T14:19:37;3.70;;;3.10;;
59434;SDS011;45241;49.768;8.636;2023-06-24T14:22:06;4.95;;;3.00;;
59434;SDS011;45241;49.768;8.636;2023-06-24T14:24:32;4.75;;;3.20;;
59434;SDS011;45241;49.768;8.636;2023-06-24T14:26:58;3.95;;;3.50;;
59434;SDS011;45241;49.768;8.636;2023-06-24T14:29:23;3.58;;;3.25;;
59434;SDS011;45241;49.768;8.636;2023-06-24T14:31:49;3.50;;;3.10;;
59434;SDS011;45241;49.768;8.636;2023-06-24T14:34:14;3.97;;;3.35;;
59434;SDS011;45241;49.768;8.636;2023-06-24T14:36:40;3.50;;;3.00;;
59434;SDS011;45241;49.768;8.636;2023-06-24T14:39:05;3.63;;;2.83;;
59434;SDS011;45241;49.768;8.636;2023-06-24T14:41:30;6.70;;;2.95;;
59434;SDS011;45241;49.768;8.636;2023-06-24T14:43:56;4.18;;;3.38;;
59434;SDS011;45241;49.768;8.636;2023-06-24T14:46:21;4.20;;;3.42;;
59434;SDS011;45241;49.768;8.636;2023-06-24T14:48:46;5.53;;;3.42;;
59434;SDS011;45241;49.768;8.636;2023-06-24T14:51:12;3.78;;;3.03;;
59434;SDS011;45241;49.768;8.636;2023-06-24T14:53:37;3.78;;;2.95;;
59434;SDS011;45241;49.768;8.636;2023-06-24T14:56:03;5.25;;;3.30;;
59434;SDS011;45241;49.768;8.636;2023-06-24T14:58:28;3.53;;;3.22;;
59434;SDS011;45241;49.768;8.636;2023-06-24T15:00:53;3.30;;;3.00;;
59434;SDS011;45241;49.768;8.636;2023-06-24T15:03:19;3.38;;;3.03;;
59434;SDS011;45241;49.768;8.636;2023-06-24T15:05:45;5.18;;;3.25;;
59434;SDS011;45241;49.768;8.636;2023-06-24T15:08:11;3.50;;;3.05;;